sensor_id;sensor_type;location;lat;lon;timestamp;temperature;humidity
79439;DHT22;68889;48.232;10.110;2023-04-08T00:02:19;6.10;99.50
79439;DHT22;68889;48.232;10.110;2023-04-08T00:04:45;6.10;99.50
79439;DHT22;68889;48.232;10.110;2023-04-08T00:07:11;6.10;99.70
79439;DHT22;68889;48.232;10.110;2023-04-08T00:09:36;6.10;99.80
79439;DHT22;68889;48.232;10.110;2023-04-08T00:12:03;6.10;99.50
79439;DHT22;68889;48.232;10.110;2023-04-08T00:14:28;6.10;99.70
79439;DHT22;68889;48.232;10.110;2023-04-08T00:16:54;6.10;99.50
79439;DHT22;68889;48.232;10.110;2023-04-08T00:19:20;6.10;99.60
79439;DHT22;68889;48.232;10.110;2023-04-08T00:21:45;6.10;99.70
79439;DHT22;68889;48.232;10.110;2023-04-08T00:24:12;6.20;99.50
79439;DHT22;68889;48.232;10.110;2023-04-08T00:26:37;6.20;99.00
79439;DHT22;68889;48.232;10.110;2023-04-08T00:29:03;6.20;99.00
79439;DHT22;68889;48.232;10.110;2023-04-08T00:31:28;6.10;99.30
79439;DHT22;68889;48.232;10.110;2023-04-08T00:33:54;6.10;99.10
79439;DHT22;68889;48.232;10.110;2023-04-08T00:36:20;6.20;99.10
79439;DHT22;68889;48.232;10.110;2023-04-08T00:38:45;6.10;99.10
79439;DHT22;68889;48.232;10.110;2023-04-08T00:41:11;6.10;99.40
79439;DHT22;68889;48.232;10.110;2023-04-08T00:43:37;6.10;99.60
79439;DHT22;68889;48.232;10.110;2023-04-08T00:46:03;6.10;99.70
79439;DHT22;68889;48.232;10.110;2023-04-08T00:48:29;6.10;99.80
79439;DHT22;68889;48.232;10.110;2023-04-08T00:50:56;6.10;99.80
79439;DHT22;68889;48.232;10.110;2023-04-08T00:53:21;6.20;99.50
79439;DHT22;68889;48.232;10.110;2023-04-08T00:55:47;6.20;99.30
79439;DHT22;68889;48.232;10.110;2023-04-08T00:58:13;6.10;99.40
79439;DHT22;68889;48.232;10.110;2023-04-08T01:00:42;6.20;99.30
79439;DHT22;68889;48.232;10.110;2023-04-08T01:06:13;6.20;99.80
79439;DHT22;68889;48.232;10.110;2023-04-08T01:08:41;6.20;99.80
79439;DHT22;68889;48.232;10.110;2023-04-08T01:11:09;6.20;99.90
79439;DHT22;68889;48.232;10.110;2023-04-08T01:13:38;6.10;99.20
79439;DHT22;68889;48.232;10.110;2023-04-08T01:16:05;6.10;98.80
79439;DHT22;68889;48.232;10.110;2023-04-08T01:18:34;6.00;99.00
79439;DHT22;68889;48.232;10.110;2023-04-08T01:21:01;6.00;99.30
79439;DHT22;68889;48.232;10.110;2023-04-08T01:26:05;6.00;99.40
79439;DHT22;68889;48.232;10.110;2023-04-08T01:28:32;5.90;99.50
79439;DHT22;68889;48.232;10.110;2023-04-08T01:30:59;5.90;99.50
79439;DHT22;68889;48.232;10.110;2023-04-08T01:33:27;5.90;99.70
79439;DHT22;68889;48.232;10.110;2023-04-08T01:35:54;5.90;99.90
79439;DHT22;68889;48.232;10.110;2023-04-08T01:38:22;6.00;99.90
79439;DHT22;68889;48.232;10.110;2023-04-08T01:40:49;6.00;99.90
79439;DHT22;68889;48.232;10.110;2023-04-08T01:43:16;6.00;99.90
79439;DHT22;68889;48.232;10.110;2023-04-08T01:45:43;6.10;99.90
79439;DHT22;68889;48.232;10.110;2023-04-08T01:48:11;6.10;99.70
79439;DHT22;68889;48.232;10.110;2023-04-08T01:50:38;6.10;99.80
79439;DHT22;68889;48.232;10.110;2023-04-08T01:53:05;6.10;99.90
79439;DHT22;68889;48.232;10.110;2023-04-08T01:55:33;6.10;99.90
79439;DHT22;68889;48.232;10.110;2023-04-08T01:57:59;6.10;99.90
79439;DHT22;68889;48.232;10.110;2023-04-08T02:00:29;6.10;99.90
79439;DHT22;68889;48.232;10.110;2023-04-08T02:02:56;6.10;99.90
79439;DHT22;68889;48.232;10.110;2023-04-08T02:05:21;6.10;99.90
79439;DHT22;68889;48.232;10.110;2023-04-08T02:07:47;6.10;99.90
79439;DHT22;68889;48.232;10.110;2023-04-08T02:10:13;6.10;99.90
79439;DHT22;68889;48.232;10.110;2023-04-08T02:12:38;6.10;99.90
79439;DHT22;68889;48.232;10.110;2023-04-08T02:15:04;6.10;99.70
79439;DHT22;68889;48.232;10.110;2023-04-08T02:17:43;6.10;99.50
79439;DHT22;68889;48.232;10.110;2023-04-08T02:25:28;6.10;99.70
79439;DHT22;68889;48.232;10.110;2023-04-08T02:27:55;6.10;99.80
79439;DHT22;68889;48.232;10.110;2023-04-08T02:30:22;6.10;99.90
79439;DHT22;68889;48.232;10.110;2023-04-08T02:32:50;6.10;99.90
79439;DHT22;68889;48.232;10.110;2023-04-08T02:35:19;6.10;99.90
79439;DHT22;68889;48.232;10.110;2023-04-08T02:37:45;6.10;99.90
79439;DHT22;68889;48.232;10.110;2023-04-08T02:40:26;6.10;99.90
79439;DHT22;68889;48.232;10.110;2023-04-08T02:42:52;6.10;99.90
79439;DHT22;68889;48.232;10.110;2023-04-08T02:45:18;6.10;99.90
79439;DHT22;68889;48.232;10.110;2023-04-08T02:47:44;6.10;99.70
79439;DHT22;68889;48.232;10.110;2023-04-08T02:50:10;6.10;99.60
79439;DHT22;68889;48.232;10.110;2023-04-08T02:52:35;6.10;99.50
79439;DHT22;68889;48.232;10.110;2023-04-08T02:55:01;6.10;99.40
79439;DHT22;68889;48.232;10.110;2023-04-08T02:57:27;6.10;99.40
79439;DHT22;68889;48.232;10.110;2023-04-08T02:59:52;6.10;99.80
79439;DHT22;68889;48.232;10.110;2023-04-08T03:02:18;6.00;99.90
79439;DHT22;68889;48.232;10.110;2023-04-08T03:04:43;6.00;99.90
79439;DHT22;68889;48.232;10.110;2023-04-08T03:07:09;6.10;99.90
79439;DHT22;68889;48.232;10.110;2023-04-08T03:09:34;6.10;99.90
79439;DHT22;68889;48.232;10.110;2023-04-08T03:12:00;6.10;99.90
79439;DHT22;68889;48.232;10.110;2023-04-08T03:14:25;6.00;99.90
79439;DHT22;68889;48.232;10.110;2023-04-08T03:16:51;6.00;99.90
79439;DHT22;68889;48.232;10.110;2023-04-08T03:19:16;6.10;99.90
79439;DHT22;68889;48.232;10.110;2023-04-08T03:21:42;6.00;99.90
79439;DHT22;68889;48.232;10.110;2023-04-08T03:24:07;6.00;99.90
79439;DHT22;68889;48.232;10.110;2023-04-08T03:26:33;6.00;99.90
79439;DHT22;68889;48.232;10.110;2023-04-08T03:28:58;6.10;99.90
79439;DHT22;68889;48.232;10.110;2023-04-08T03:31:24;6.10;99.90
79439;DHT22;68889;48.232;10.110;2023-04-08T03:33:50;6.10;99.90
79439;DHT22;68889;48.232;10.110;2023-04-08T03:36:15;6.20;99.40
79439;DHT22;68889;48.232;10.110;2023-04-08T03:38:41;6.20;98.80
79439;DHT22;68889;48.232;10.110;2023-04-08T03:41:07;6.20;98.90
79439;DHT22;68889;48.232;10.110;2023-04-08T03:43:32;6.20;99.00
79439;DHT22;68889;48.232;10.110;2023-04-08T03:45:58;6.20;98.90
79439;DHT22;68889;48.232;10.110;2023-04-08T03:48:23;6.10;98.60
79439;DHT22;68889;48.232;10.110;2023-04-08T03:50:49;6.10;98.50
79439;DHT22;68889;48.232;10.110;2023-04-08T03:53:14;6.10;98.30
79439;DHT22;68889;48.232;10.110;2023-04-08T03:55:40;6.00;98.50
79439;DHT22;68889;48.232;10.110;2023-04-08T03:58:06;6.00;98.60
79439;DHT22;68889;48.232;10.110;2023-04-08T04:00:31;6.00;98.50
79439;DHT22;68889;48.232;10.110;2023-04-08T04:02:57;5.90;99.00
79439;DHT22;68889;48.232;10.110;2023-04-08T04:05:22;5.90;99.50
79439;DHT22;68889;48.232;10.110;2023-04-08T04:07:48;5.90;99.90
79439;DHT22;68889;48.232;10.110;2023-04-08T04:10:13;5.90;99.90
79439;DHT22;68889;48.232;10.110;2023-04-08T04:12:39;5.90;99.90
79439;DHT22;68889;48.232;10.110;2023-04-08T04:15:04;6.00;99.90
79439;DHT22;68889;48.232;10.110;2023-04-08T04:17:31;6.00;99.90
79439;DHT22;68889;48.232;10.110;2023-04-08T04:19:56;6.00;99.90
79439;DHT22;68889;48.232;10.110;2023-04-08T04:22:22;6.00;99.90
79439;DHT22;68889;48.232;10.110;2023-04-08T04:24:48;6.10;99.70
79439;DHT22;68889;48.232;10.110;2023-04-08T04:27:14;6.10;99.30
79439;DHT22;68889;48.232;10.110;2023-04-08T04:29:42;6.10;99.40
79439;DHT22;68889;48.232;10.110;2023-04-08T04:32:07;6.10;99.10
79439;DHT22;68889;48.232;10.110;2023-04-08T04:34:33;6.10;99.40
79439;DHT22;68889;48.232;10.110;2023-04-08T04:36:58;6.10;99.50
79439;DHT22;68889;48.232;10.110;2023-04-08T04:39:24;6.10;99.10
79439;DHT22;68889;48.232;10.110;2023-04-08T04:41:49;6.10;98.90
79439;DHT22;68889;48.232;10.110;2023-04-08T04:44:15;6.10;99.40
79439;DHT22;68889;48.232;10.110;2023-04-08T04:46:41;6.10;99.50
79439;DHT22;68889;48.232;10.110;2023-04-08T04:49:06;6.10;99.50
79439;DHT22;68889;48.232;10.110;2023-04-08T04:51:32;6.00;99.60
79439;DHT22;68889;48.232;10.110;2023-04-08T04:53:58;6.10;99.40
79439;DHT22;68889;48.232;10.110;2023-04-08T04:56:23;6.10;99.30
79439;DHT22;68889;48.232;10.110;2023-04-08T04:58:50;6.00;99.60
79439;DHT22;68889;48.232;10.110;2023-04-08T05:01:16;6.00;99.70
79439;DHT22;68889;48.232;10.110;2023-04-08T05:03:41;6.00;99.80
79439;DHT22;68889;48.232;10.110;2023-04-08T05:06:07;6.00;99.30
79439;DHT22;68889;48.232;10.110;2023-04-08T05:08:32;6.00;99.70
79439;DHT22;68889;48.232;10.110;2023-04-08T05:10:58;6.00;99.90
79439;DHT22;68889;48.232;10.110;2023-04-08T05:13:27;6.00;99.90
79439;DHT22;68889;48.232;10.110;2023-04-08T05:15:52;6.00;99.90
79439;DHT22;68889;48.232;10.110;2023-04-08T05:18:18;6.00;99.40
79439;DHT22;68889;48.232;10.110;2023-04-08T05:20:44;6.00;98.30
79439;DHT22;68889;48.232;10.110;2023-04-08T05:23:09;6.00;98.60
79439;DHT22;68889;48.232;10.110;2023-04-08T05:25:35;6.00;98.80
79439;DHT22;68889;48.232;10.110;2023-04-08T05:28:01;6.00;99.10
79439;DHT22;68889;48.232;10.110;2023-04-08T05:30:26;6.00;98.90
79439;DHT22;68889;48.232;10.110;2023-04-08T05:32:52;6.00;98.70
79439;DHT22;68889;48.232;10.110;2023-04-08T05:35:17;6.00;98.90
79439;DHT22;68889;48.232;10.110;2023-04-08T05:37:43;6.00;99.10
79439;DHT22;68889;48.232;10.110;2023-04-08T05:40:09;6.00;99.10
79439;DHT22;68889;48.232;10.110;2023-04-08T05:42:34;6.00;99.10
79439;DHT22;68889;48.232;10.110;2023-04-08T05:45:00;6.00;99.30
79439;DHT22;68889;48.232;10.110;2023-04-08T05:47:25;6.10;99.00
79439;DHT22;68889;48.232;10.110;2023-04-08T05:49:51;6.10;99.00
79439;DHT22;68889;48.232;10.110;2023-04-08T05:52:17;6.10;99.20
79439;DHT22;68889;48.232;10.110;2023-04-08T05:54:42;6.10;99.40
79439;DHT22;68889;48.232;10.110;2023-04-08T05:57:08;6.10;98.90
79439;DHT22;68889;48.232;10.110;2023-04-08T05:59:34;6.10;98.60
79439;DHT22;68889;48.232;10.110;2023-04-08T06:02:00;6.20;98.70
79439;DHT22;68889;48.232;10.110;2023-04-08T06:04:26;6.10;99.00
79439;DHT22;68889;48.232;10.110;2023-04-08T06:06:51;6.10;98.90
79439;DHT22;68889;48.232;10.110;2023-04-08T06:09:17;6.10;98.10
79439;DHT22;68889;48.232;10.110;2023-04-08T06:11:42;6.10;98.70
79439;DHT22;68889;48.232;10.110;2023-04-08T06:14:08;6.00;99.00
79439;DHT22;68889;48.232;10.110;2023-04-08T06:16:34;6.00;99.50
79439;DHT22;68889;48.232;10.110;2023-04-08T06:18:59;6.00;98.50
79439;DHT22;68889;48.232;10.110;2023-04-08T06:21:25;5.90;98.30
79439;DHT22;68889;48.232;10.110;2023-04-08T06:23:50;5.90;98.50
79439;DHT22;68889;48.232;10.110;2023-04-08T06:26:16;5.90;99.00
79439;DHT22;68889;48.232;10.110;2023-04-08T06:28:42;5.90;99.00
79439;DHT22;68889;48.232;10.110;2023-04-08T06:31:07;6.00;99.40
79439;DHT22;68889;48.232;10.110;2023-04-08T06:33:33;6.00;99.10
79439;DHT22;68889;48.232;10.110;2023-04-08T06:36:06;5.90;99.20
79439;DHT22;68889;48.232;10.110;2023-04-08T06:38:32;6.00;99.40
79439;DHT22;68889;48.232;10.110;2023-04-08T06:41:05;5.90;99.00
79439;DHT22;68889;48.232;10.110;2023-04-08T06:43:31;5.90;99.10
79439;DHT22;68889;48.232;10.110;2023-04-08T06:45:57;5.90;98.80
79439;DHT22;68889;48.232;10.110;2023-04-08T06:48:23;5.90;98.80
79439;DHT22;68889;48.232;10.110;2023-04-08T06:50:56;5.90;99.10
79439;DHT22;68889;48.232;10.110;2023-04-08T06:53:26;5.90;99.50
79439;DHT22;68889;48.232;10.110;2023-04-08T06:55:53;5.90;99.40
79439;DHT22;68889;48.232;10.110;2023-04-08T06:58:19;5.90;99.50
79439;DHT22;68889;48.232;10.110;2023-04-08T07:00:45;6.00;99.70
79439;DHT22;68889;48.232;10.110;2023-04-08T07:03:10;6.00;99.90
79439;DHT22;68889;48.232;10.110;2023-04-08T07:05:36;6.00;99.90
79439;DHT22;68889;48.232;10.110;2023-04-08T07:08:02;6.00;99.90
79439;DHT22;68889;48.232;10.110;2023-04-08T07:10:27;6.10;99.90
79439;DHT22;68889;48.232;10.110;2023-04-08T07:12:53;6.10;99.90
79439;DHT22;68889;48.232;10.110;2023-04-08T07:15:19;6.10;99.90
79439;DHT22;68889;48.232;10.110;2023-04-08T07:17:44;6.20;99.50
79439;DHT22;68889;48.232;10.110;2023-04-08T07:20:11;6.20;97.20
79439;DHT22;68889;48.232;10.110;2023-04-08T07:22:38;6.20;97.60
79439;DHT22;68889;48.232;10.110;2023-04-08T07:25:03;6.30;98.20
79439;DHT22;68889;48.232;10.110;2023-04-08T07:27:29;6.30;98.10
79439;DHT22;68889;48.232;10.110;2023-04-08T07:29:55;6.40;98.20
79439;DHT22;68889;48.232;10.110;2023-04-08T07:32:20;6.50;97.90
79439;DHT22;68889;48.232;10.110;2023-04-08T07:34:46;6.50;98.20
79439;DHT22;68889;48.232;10.110;2023-04-08T07:37:12;6.50;98.00
79439;DHT22;68889;48.232;10.110;2023-04-08T07:39:37;6.60;96.70
79439;DHT22;68889;48.232;10.110;2023-04-08T07:42:03;6.80;94.50
79439;DHT22;68889;48.232;10.110;2023-04-08T07:44:28;6.90;94.70
79439;DHT22;68889;48.232;10.110;2023-04-08T07:46:54;7.00;94.00
79439;DHT22;68889;48.232;10.110;2023-04-08T07:49:19;7.00;92.80
79439;DHT22;68889;48.232;10.110;2023-04-08T07:51:45;7.10;93.20
79439;DHT22;68889;48.232;10.110;2023-04-08T07:54:11;7.20;92.90
79439;DHT22;68889;48.232;10.110;2023-04-08T07:56:44;7.30;90.50
79439;DHT22;68889;48.232;10.110;2023-04-08T07:59:10;7.30;90.50
79439;DHT22;68889;48.232;10.110;2023-04-08T08:01:36;7.40;91.60
79439;DHT22;68889;48.232;10.110;2023-04-08T08:04:02;7.50;90.60
79439;DHT22;68889;48.232;10.110;2023-04-08T08:06:28;7.50;89.40
79439;DHT22;68889;48.232;10.110;2023-04-08T08:08:54;7.50;90.00
79439;DHT22;68889;48.232;10.110;2023-04-08T08:11:19;7.50;91.90
79439;DHT22;68889;48.232;10.110;2023-04-08T08:13:46;7.60;90.80
79439;DHT22;68889;48.232;10.110;2023-04-08T08:16:12;7.70;90.00
79439;DHT22;68889;48.232;10.110;2023-04-08T08:18:38;7.70;89.20
79439;DHT22;68889;48.232;10.110;2023-04-08T08:21:04;7.60;89.30
79439;DHT22;68889;48.232;10.110;2023-04-08T08:23:30;7.60;90.10
79439;DHT22;68889;48.232;10.110;2023-04-08T08:26:04;7.60;89.90
79439;DHT22;68889;48.232;10.110;2023-04-08T08:28:31;7.60;88.90
79439;DHT22;68889;48.232;10.110;2023-04-08T08:30:56;7.50;90.30
79439;DHT22;68889;48.232;10.110;2023-04-08T08:33:22;7.50;90.90
79439;DHT22;68889;48.232;10.110;2023-04-08T08:35:47;7.60;89.50
79439;DHT22;68889;48.232;10.110;2023-04-08T08:38:13;7.70;89.20
79439;DHT22;68889;48.232;10.110;2023-04-08T08:40:39;7.70;88.50
79439;DHT22;68889;48.232;10.110;2023-04-08T08:43:04;7.60;87.90
79439;DHT22;68889;48.232;10.110;2023-04-08T08:45:30;7.70;87.00
79439;DHT22;68889;48.232;10.110;2023-04-08T08:47:57;7.80;87.30
79439;DHT22;68889;48.232;10.110;2023-04-08T08:50:22;7.90;87.70
79439;DHT22;68889;48.232;10.110;2023-04-08T08:52:49;8.00;86.60
79439;DHT22;68889;48.232;10.110;2023-04-08T08:55:20;8.00;86.20
79439;DHT22;68889;48.232;10.110;2023-04-08T08:57:49;8.00;86.30
79439;DHT22;68889;48.232;10.110;2023-04-08T09:00:15;8.20;86.50
79439;DHT22;68889;48.232;10.110;2023-04-08T09:02:41;8.40;86.60
79439;DHT22;68889;48.232;10.110;2023-04-08T09:05:07;8.40;85.10
79439;DHT22;68889;48.232;10.110;2023-04-08T09:07:37;8.40;82.40
79439;DHT22;68889;48.232;10.110;2023-04-08T09:10:05;8.40;83.50
79439;DHT22;68889;48.232;10.110;2023-04-08T09:12:30;8.60;82.70
79439;DHT22;68889;48.232;10.110;2023-04-08T09:15:07;8.70;81.70
79439;DHT22;68889;48.232;10.110;2023-04-08T09:17:35;8.80;80.80
79439;DHT22;68889;48.232;10.110;2023-04-08T09:22:34;9.10;82.00
79439;DHT22;68889;48.232;10.110;2023-04-08T09:25:00;9.30;79.20
79439;DHT22;68889;48.232;10.110;2023-04-08T09:27:34;9.10;77.20
79439;DHT22;68889;48.232;10.110;2023-04-08T09:30:15;8.90;77.60
79439;DHT22;68889;48.232;10.110;2023-04-08T09:32:54;9.00;79.30
79439;DHT22;68889;48.232;10.110;2023-04-08T09:35:20;9.20;77.90
79439;DHT22;68889;48.232;10.110;2023-04-08T09:37:47;9.20;78.60
79439;DHT22;68889;48.232;10.110;2023-04-08T09:40:13;9.30;77.30
79439;DHT22;68889;48.232;10.110;2023-04-08T09:42:47;9.30;76.60
79439;DHT22;68889;48.232;10.110;2023-04-08T09:45:16;9.40;75.30
79439;DHT22;68889;48.232;10.110;2023-04-08T09:48:08;9.30;74.20
79439;DHT22;68889;48.232;10.110;2023-04-08T09:50:39;9.40;75.10
79439;DHT22;68889;48.232;10.110;2023-04-08T09:53:33;9.40;70.60
79439;DHT22;68889;48.232;10.110;2023-04-08T09:56:01;9.40;74.60
79439;DHT22;68889;48.232;10.110;2023-04-08T09:58:38;9.40;76.40
79439;DHT22;68889;48.232;10.110;2023-04-08T10:01:04;9.40;74.60
79439;DHT22;68889;48.232;10.110;2023-04-08T10:03:47;9.10;71.80
79439;DHT22;68889;48.232;10.110;2023-04-08T10:06:14;8.90;73.70
79439;DHT22;68889;48.232;10.110;2023-04-08T10:08:40;8.80;74.20
79439;DHT22;68889;48.232;10.110;2023-04-08T10:11:06;8.70;74.10
79439;DHT22;68889;48.232;10.110;2023-04-08T10:13:32;8.50;73.30
79439;DHT22;68889;48.232;10.110;2023-04-08T10:16:21;8.30;76.60
79439;DHT22;68889;48.232;10.110;2023-04-08T10:18:47;8.00;81.40
79439;DHT22;68889;48.232;10.110;2023-04-08T10:21:33;7.70;78.40
79439;DHT22;68889;48.232;10.110;2023-04-08T10:24:00;7.40;80.50
79439;DHT22;68889;48.232;10.110;2023-04-08T10:26:41;7.30;82.00
79439;DHT22;68889;48.232;10.110;2023-04-08T10:31:53;7.30;74.00
79439;DHT22;68889;48.232;10.110;2023-04-08T10:34:23;7.20;74.20
79439;DHT22;68889;48.232;10.110;2023-04-08T10:36:51;7.20;77.10
79439;DHT22;68889;48.232;10.110;2023-04-08T10:39:17;7.20;79.90
79439;DHT22;68889;48.232;10.110;2023-04-08T10:41:50;7.20;81.00
79439;DHT22;68889;48.232;10.110;2023-04-08T10:46:46;7.40;78.10
79439;DHT22;68889;48.232;10.110;2023-04-08T10:49:12;7.50;77.50
79439;DHT22;68889;48.232;10.110;2023-04-08T10:51:38;7.70;76.20
79439;DHT22;68889;48.232;10.110;2023-04-08T10:54:05;7.80;76.10
79439;DHT22;68889;48.232;10.110;2023-04-08T10:56:32;7.90;78.70
79439;DHT22;68889;48.232;10.110;2023-04-08T10:58:57;8.00;75.20
79439;DHT22;68889;48.232;10.110;2023-04-08T11:01:24;8.10;75.80
79439;DHT22;68889;48.232;10.110;2023-04-08T11:03:50;8.10;75.00
79439;DHT22;68889;48.232;10.110;2023-04-08T11:06:16;8.20;73.70
79439;DHT22;68889;48.232;10.110;2023-04-08T11:08:42;8.30;74.80
79439;DHT22;68889;48.232;10.110;2023-04-08T11:11:09;8.40;73.10
79439;DHT22;68889;48.232;10.110;2023-04-08T11:13:38;8.40;73.10
79439;DHT22;68889;48.232;10.110;2023-04-08T11:16:05;8.50;73.70
79439;DHT22;68889;48.232;10.110;2023-04-08T11:18:34;8.60;70.60
79439;DHT22;68889;48.232;10.110;2023-04-08T11:21:00;8.50;73.10
79439;DHT22;68889;48.232;10.110;2023-04-08T11:23:28;8.50;73.60
79439;DHT22;68889;48.232;10.110;2023-04-08T11:25:54;8.50;73.50
79439;DHT22;68889;48.232;10.110;2023-04-08T11:28:21;8.50;72.40
79439;DHT22;68889;48.232;10.110;2023-04-08T11:30:47;8.60;71.80
79439;DHT22;68889;48.232;10.110;2023-04-08T11:33:13;8.70;72.60
79439;DHT22;68889;48.232;10.110;2023-04-08T11:35:39;8.70;71.60
79439;DHT22;68889;48.232;10.110;2023-04-08T11:38:05;8.80;72.10
79439;DHT22;68889;48.232;10.110;2023-04-08T11:40:32;8.80;71.40
79439;DHT22;68889;48.232;10.110;2023-04-08T11:42:57;9.00;70.50
79439;DHT22;68889;48.232;10.110;2023-04-08T11:45:23;9.00;70.40
79439;DHT22;68889;48.232;10.110;2023-04-08T11:47:49;9.20;70.20
79439;DHT22;68889;48.232;10.110;2023-04-08T11:50:25;9.40;71.70
79439;DHT22;68889;48.232;10.110;2023-04-08T11:52:51;9.40;69.50
79439;DHT22;68889;48.232;10.110;2023-04-08T11:57:49;9.60;68.40
79439;DHT22;68889;48.232;10.110;2023-04-08T12:00:15;9.80;67.90
79439;DHT22;68889;48.232;10.110;2023-04-08T12:02:40;9.90;67.50
79439;DHT22;68889;48.232;10.110;2023-04-08T12:05:06;10.00;67.30
79439;DHT22;68889;48.232;10.110;2023-04-08T12:07:32;10.10;65.20
79439;DHT22;68889;48.232;10.110;2023-04-08T12:09:58;10.10;66.50
79439;DHT22;68889;48.232;10.110;2023-04-08T12:12:23;10.10;67.80
79439;DHT22;68889;48.232;10.110;2023-04-08T12:14:49;10.10;68.30
79439;DHT22;68889;48.232;10.110;2023-04-08T12:17:15;10.10;63.80
79439;DHT22;68889;48.232;10.110;2023-04-08T12:19:41;9.90;64.50
79439;DHT22;68889;48.232;10.110;2023-04-08T12:22:06;9.70;64.90
79439;DHT22;68889;48.232;10.110;2023-04-08T12:24:32;9.40;66.20
79439;DHT22;68889;48.232;10.110;2023-04-08T12:26:57;9.50;67.30
79439;DHT22;68889;48.232;10.110;2023-04-08T12:29:23;9.50;66.90
79439;DHT22;68889;48.232;10.110;2023-04-08T12:31:48;9.60;68.60
79439;DHT22;68889;48.232;10.110;2023-04-08T12:34:14;9.60;67.40
79439;DHT22;68889;48.232;10.110;2023-04-08T12:36:40;9.50;67.40
79439;DHT22;68889;48.232;10.110;2023-04-08T12:39:07;9.40;66.70
79439;DHT22;68889;48.232;10.110;2023-04-08T12:41:32;9.50;67.20
79439;DHT22;68889;48.232;10.110;2023-04-08T12:43:58;9.70;66.90
79439;DHT22;68889;48.232;10.110;2023-04-08T12:46:23;9.80;67.40
79439;DHT22;68889;48.232;10.110;2023-04-08T12:48:49;9.80;65.80
79439;DHT22;68889;48.232;10.110;2023-04-08T12:51:14;10.00;67.70
79439;DHT22;68889;48.232;10.110;2023-04-08T12:53:40;10.00;66.90
79439;DHT22;68889;48.232;10.110;2023-04-08T12:56:07;10.10;66.10
79439;DHT22;68889;48.232;10.110;2023-04-08T12:58:32;10.10;67.30
79439;DHT22;68889;48.232;10.110;2023-04-08T13:00:58;10.10;68.10
79439;DHT22;68889;48.232;10.110;2023-04-08T13:03:23;9.80;67.70
79439;DHT22;68889;48.232;10.110;2023-04-08T13:05:50;9.70;66.90
79439;DHT22;68889;48.232;10.110;2023-04-08T13:08:15;9.60;68.70
79439;DHT22;68889;48.232;10.110;2023-04-08T13:10:41;9.50;68.70
79439;DHT22;68889;48.232;10.110;2023-04-08T13:13:07;9.20;67.80
79439;DHT22;68889;48.232;10.110;2023-04-08T13:15:33;9.10;69.40
79439;DHT22;68889;48.232;10.110;2023-04-08T13:17:58;9.00;69.50
79439;DHT22;68889;48.232;10.110;2023-04-08T13:20:24;8.90;70.30
79439;DHT22;68889;48.232;10.110;2023-04-08T13:22:53;8.70;72.10
79439;DHT22;68889;48.232;10.110;2023-04-08T13:25:19;8.60;72.60
79439;DHT22;68889;48.232;10.110;2023-04-08T13:27:44;8.40;73.70
79439;DHT22;68889;48.232;10.110;2023-04-08T13:30:10;8.30;76.60
79439;DHT22;68889;48.232;10.110;2023-04-08T13:32:36;8.20;75.80
79439;DHT22;68889;48.232;10.110;2023-04-08T13:35:02;8.00;76.20
79439;DHT22;68889;48.232;10.110;2023-04-08T13:37:27;7.90;78.70
79439;DHT22;68889;48.232;10.110;2023-04-08T13:39:53;7.90;76.70
79439;DHT22;68889;48.232;10.110;2023-04-08T13:42:19;8.00;79.10
79439;DHT22;68889;48.232;10.110;2023-04-08T13:44:44;7.90;78.70
79439;DHT22;68889;48.232;10.110;2023-04-08T13:47:10;7.90;78.10
79439;DHT22;68889;48.232;10.110;2023-04-08T13:49:36;8.00;78.70
79439;DHT22;68889;48.232;10.110;2023-04-08T13:52:02;8.00;77.80
79439;DHT22;68889;48.232;10.110;2023-04-08T13:54:28;8.00;76.60
79439;DHT22;68889;48.232;10.110;2023-04-08T13:56:53;8.00;76.50
79439;DHT22;68889;48.232;10.110;2023-04-08T13:59:19;8.10;75.60
79439;DHT22;68889;48.232;10.110;2023-04-08T14:01:44;8.10;74.40
79439;DHT22;68889;48.232;10.110;2023-04-08T14:04:10;8.10;74.90
79439;DHT22;68889;48.232;10.110;2023-04-08T14:06:36;8.20;71.60
79439;DHT22;68889;48.232;10.110;2023-04-08T14:09:02;8.20;72.70
79439;DHT22;68889;48.232;10.110;2023-04-08T14:11:27;8.10;69.50
79439;DHT22;68889;48.232;10.110;2023-04-08T14:13:53;8.00;69.20
79439;DHT22;68889;48.232;10.110;2023-04-08T14:16:18;7.90;68.30
79439;DHT22;68889;48.232;10.110;2023-04-08T14:18:44;7.90;68.40
79439;DHT22;68889;48.232;10.110;2023-04-08T14:21:10;7.80;67.90
79439;DHT22;68889;48.232;10.110;2023-04-08T14:23:37;7.80;68.60
79439;DHT22;68889;48.232;10.110;2023-04-08T14:26:02;7.90;69.20
79439;DHT22;68889;48.232;10.110;2023-04-08T14:28:28;8.00;69.00
79439;DHT22;68889;48.232;10.110;2023-04-08T14:30:53;7.90;68.30
79439;DHT22;68889;48.232;10.110;2023-04-08T14:33:20;7.90;69.50
79439;DHT22;68889;48.232;10.110;2023-04-08T14:35:45;7.90;69.70
79439;DHT22;68889;48.232;10.110;2023-04-08T14:38:12;7.90;69.60
79439;DHT22;68889;48.232;10.110;2023-04-08T14:40:37;7.90;69.80
79439;DHT22;68889;48.232;10.110;2023-04-08T14:43:03;7.90;70.10
79439;DHT22;68889;48.232;10.110;2023-04-08T14:45:28;8.00;69.70
79439;DHT22;68889;48.232;10.110;2023-04-08T14:47:54;7.80;69.30
79439;DHT22;68889;48.232;10.110;2023-04-08T14:50:19;7.80;70.00
79439;DHT22;68889;48.232;10.110;2023-04-08T14:52:45;7.80;69.90
79439;DHT22;68889;48.232;10.110;2023-04-08T14:55:13;7.70;70.10
79439;DHT22;68889;48.232;10.110;2023-04-08T14:57:38;7.70;70.80
79439;DHT22;68889;48.232;10.110;2023-04-08T15:00:04;7.60;70.70
79439;DHT22;68889;48.232;10.110;2023-04-08T15:02:30;7.60;72.10
79439;DHT22;68889;48.232;10.110;2023-04-08T15:04:55;7.70;72.60
79439;DHT22;68889;48.232;10.110;2023-04-08T15:07:21;7.70;72.00
79439;DHT22;68889;48.232;10.110;2023-04-08T15:09:47;7.70;72.90
79439;DHT22;68889;48.232;10.110;2023-04-08T15:12:13;7.70;72.70
79439;DHT22;68889;48.232;10.110;2023-04-08T15:14:38;7.70;72.70
79439;DHT22;68889;48.232;10.110;2023-04-08T15:17:04;7.70;73.30
79439;DHT22;68889;48.232;10.110;2023-04-08T15:19:30;7.70;72.30
79439;DHT22;68889;48.232;10.110;2023-04-08T15:21:55;7.70;73.50
79439;DHT22;68889;48.232;10.110;2023-04-08T15:24:21;7.60;72.80
79439;DHT22;68889;48.232;10.110;2023-04-08T15:26:47;7.50;74.10
79439;DHT22;68889;48.232;10.110;2023-04-08T15:29:12;7.40;74.00
79439;DHT22;68889;48.232;10.110;2023-04-08T15:31:38;7.50;75.10
79439;DHT22;68889;48.232;10.110;2023-04-08T15:34:03;7.40;74.30
79439;DHT22;68889;48.232;10.110;2023-04-08T15:36:29;7.30;75.20
79439;DHT22;68889;48.232;10.110;2023-04-08T15:38:55;7.30;75.80
79439;DHT22;68889;48.232;10.110;2023-04-08T15:41:21;7.30;75.30
79439;DHT22;68889;48.232;10.110;2023-04-08T15:43:47;7.20;75.70
79439;DHT22;68889;48.232;10.110;2023-04-08T15:46:19;7.20;76.60
79439;DHT22;68889;48.232;10.110;2023-04-08T15:48:46;7.20;78.30